createdAt,value
2022-12-19T00:01:02.083Z,1.95
2022-12-19T00:03:28.748Z,2.35
2022-12-19T00:05:55.301Z,2.08
2022-12-19T00:08:21.700Z,2.10
2022-12-19T00:10:55.545Z,2.35
2022-12-19T00:13:21.887Z,2.55
2022-12-19T00:15:48.212Z,2.78
2022-12-19T00:18:14.629Z,2.63
2022-12-19T00:20:40.938Z,2.80
2022-12-19T00:23:07.726Z,2.35
2022-12-19T00:25:34.125Z,2.85
2022-12-19T00:28:04.837Z,2.63
2022-12-19T00:30:31.922Z,2.92
2022-12-19T00:32:58.663Z,2.60
2022-12-19T00:35:25.161Z,3.47
2022-12-19T00:37:51.626Z,2.88
2022-12-19T00:40:18.032Z,3.30
2022-12-19T00:42:48.653Z,3.72
2022-12-19T00:45:18.155Z,3.65
2022-12-19T00:47:47.467Z,3.22
2022-12-19T00:50:13.799Z,4.13
2022-12-19T00:52:43.119Z,3.80
2022-12-19T00:55:11.491Z,4.22
2022-12-19T00:57:45.242Z,4.30
2022-12-19T01:00:11.917Z,4.13
2022-12-19T01:02:38.293Z,4.10
2022-12-19T01:05:04.962Z,4.78
2022-12-19T01:07:31.323Z,3.92
2022-12-19T01:09:57.660Z,4.68
2022-12-19T01:12:42.783Z,5.65
2022-12-19T01:15:09.346Z,4.30
2022-12-19T01:17:38.228Z,6.00
2022-12-19T01:20:11.502Z,5.95
2022-12-19T01:22:37.864Z,6.85
2022-12-19T01:25:05.285Z,6.82
2022-12-19T01:27:31.988Z,7.13
2022-12-19T01:29:58.429Z,6.68
2022-12-19T01:32:24.944Z,7.18
2022-12-19T01:34:51.274Z,6.95
2022-12-19T01:37:18.026Z,8.05
2022-12-19T01:39:44.405Z,8.27
2022-12-19T01:42:16.698Z,7.88
2022-12-19T01:45:02.001Z,8.52
2022-12-19T01:47:28.801Z,8.70
2022-12-19T01:49:55.317Z,8.32
2022-12-19T01:52:23.841Z,8.68
2022-12-19T01:54:50.481Z,8.68
2022-12-19T01:57:18.103Z,8.30
2022-12-19T01:59:47.481Z,8.20
2022-12-19T02:02:20.159Z,8.15
2022-12-19T02:04:47.365Z,8.13
2022-12-19T02:07:15.985Z,8.70
2022-12-19T02:09:43.535Z,8.15
2022-12-19T02:12:09.965Z,7.85
2022-12-19T02:14:36.437Z,9.10
2022-12-19T02:17:08.752Z,8.93
2022-12-19T02:19:53.961Z,8.98
2022-12-19T02:22:23.367Z,9.10
2022-12-19T02:24:55.734Z,10.15
2022-12-19T02:27:30.341Z,9.75
2022-12-19T02:29:59.897Z,7.43
2022-12-19T02:32:38.646Z,9.50
2022-12-19T02:35:05.023Z,10.55
2022-12-19T02:37:36.228Z,9.73
2022-12-19T02:40:05.600Z,10.20
2022-12-19T02:42:34.445Z,10.07
2022-12-19T02:45:05.889Z,10.50
2022-12-19T02:47:33.222Z,9.88
2022-12-19T02:49:59.670Z,10.05
2022-12-19T02:52:25.993Z,10.23
2022-12-19T02:54:53.993Z,9.88
2022-12-19T02:57:29.984Z,9.35
2022-12-19T03:00:07.488Z,10.25
2022-12-19T03:02:33.867Z,10.30
2022-12-19T03:05:00.376Z,9.80
2022-12-19T03:07:35.448Z,10.13
2022-12-19T03:10:12.809Z,10.57
2022-12-19T03:12:45.287Z,9.43
2022-12-19T03:15:11.981Z,11.45
2022-12-19T03:17:38.606Z,10.30
2022-12-19T03:20:08.244Z,10.48
2022-12-19T03:22:35.058Z,9.77
2022-12-19T03:25:01.859Z,10.70
2022-12-19T03:27:29.853Z,10.20
2022-12-19T03:30:01.527Z,10.50
2022-12-19T03:32:28.666Z,10.32
2022-12-19T03:35:08.487Z,9.63
2022-12-19T03:37:37.348Z,9.85
2022-12-19T03:40:06.090Z,10.13
2022-12-19T03:42:51.769Z,10.02
2022-12-19T03:45:23.026Z,9.80
2022-12-19T03:47:52.911Z,9.60
2022-12-19T03:50:19.409Z,10.18
2022-12-19T03:52:48.285Z,9.75
2022-12-19T03:55:17.683Z,9.93
2022-12-19T03:57:47.638Z,9.65
2022-12-19T04:00:15.672Z,10.32
2022-12-19T04:02:44.567Z,9.43
2022-12-19T04:05:13.065Z,10.45
2022-12-19T04:07:39.988Z,9.35
2022-12-19T04:10:07.867Z,10.30
2022-12-19T04:12:37.311Z,10.95
2022-12-19T04:15:04.411Z,9.98
2022-12-19T04:17:49.959Z,10.02
2022-12-19T04:20:17.516Z,10.95
2022-12-19T04:22:56.796Z,9.57
2022-12-19T04:25:29.327Z,10.57
2022-12-19T04:27:58.942Z,9.75
2022-12-19T04:30:25.918Z,10.85
2022-12-19T04:32:52.335Z,11.00
2022-12-19T04:35:18.759Z,10.38
2022-12-19T04:37:45.134Z,9.85
2022-12-19T04:40:11.741Z,9.65
2022-12-19T04:42:38.090Z,10.23
2022-12-19T04:45:05.219Z,9.88
2022-12-19T04:47:31.906Z,10.40
2022-12-19T04:49:58.273Z,9.70
2022-12-19T04:52:24.629Z,9.88
2022-12-19T04:54:50.981Z,9.73
2022-12-19T04:57:17.395Z,9.70
2022-12-19T04:59:43.737Z,8.63
2022-12-19T05:02:10.650Z,9.15
2022-12-19T05:04:37.066Z,9.38
2022-12-19T05:07:03.441Z,9.70
2022-12-19T05:09:31.758Z,9.65
2022-12-19T05:11:58.133Z,9.73
2022-12-19T05:14:24.506Z,9.77
2022-12-19T05:16:53.742Z,10.85
2022-12-19T05:19:22.342Z,9.15
2022-12-19T05:21:48.820Z,9.52
2022-12-19T05:24:15.430Z,8.77
2022-12-19T05:26:42.005Z,9.20
2022-12-19T05:29:08.575Z,9.43
2022-12-19T05:31:34.989Z,9.73
2022-12-19T05:34:01.465Z,9.13
2022-12-19T05:36:32.468Z,9.80
2022-12-19T05:38:59.197Z,9.52
2022-12-19T05:41:25.644Z,10.10
2022-12-19T05:43:53.084Z,8.68
2022-12-19T05:46:23.042Z,9.50
2022-12-19T05:48:49.611Z,9.57
2022-12-19T05:51:16.393Z,9.25
2022-12-19T05:53:42.973Z,9.20
2022-12-19T05:56:11.155Z,9.15
2022-12-19T05:58:37.952Z,8.85
2022-12-19T06:01:05.759Z,8.88
2022-12-19T06:03:32.246Z,8.77
2022-12-19T06:06:02.179Z,9.73
2022-12-19T06:08:28.525Z,9.68
2022-12-19T06:10:54.872Z,9.15
2022-12-19T06:13:25.001Z,9.55
2022-12-19T06:15:56.472Z,9.32
2022-12-19T06:18:22.838Z,9.90
2022-12-19T06:20:58.878Z,9.30
2022-12-19T06:23:26.941Z,9.73
2022-12-19T06:25:55.736Z,9.40
2022-12-19T06:28:22.051Z,9.50
2022-12-19T06:30:48.420Z,9.45
2022-12-19T06:33:15.013Z,9.95
2022-12-19T06:35:41.607Z,9.60
2022-12-19T06:38:08.155Z,10.00
2022-12-19T06:40:52.946Z,9.73
2022-12-19T06:43:19.354Z,9.90
2022-12-19T06:45:45.792Z,9.43
2022-12-19T06:48:12.418Z,10.25
2022-12-19T06:50:38.740Z,9.80
2022-12-19T06:53:05.416Z,8.95
2022-12-19T06:55:32.097Z,9.15
2022-12-19T06:57:58.475Z,9.38
2022-12-19T07:00:26.002Z,8.32
2022-12-19T07:02:52.496Z,9.00
2022-12-19T07:05:19.024Z,8.70
2022-12-19T07:07:45.363Z,8.13
2022-12-19T07:10:11.846Z,8.80
2022-12-19T07:12:38.297Z,9.18
2022-12-19T07:15:05.004Z,8.88
2022-12-19T07:17:31.531Z,9.55
2022-12-19T07:19:58.298Z,8.98
2022-12-19T07:22:27.291Z,9.60
2022-12-19T07:24:54.977Z,9.85
2022-12-19T07:27:22.994Z,9.43
2022-12-19T07:29:49.459Z,9.30
2022-12-19T07:32:15.765Z,9.70
2022-12-19T07:34:42.141Z,9.02
2022-12-19T07:37:08.722Z,9.23
2022-12-19T07:39:35.043Z,9.60
2022-12-19T07:42:01.405Z,10.07
2022-12-19T07:44:27.730Z,9.13
2022-12-19T07:46:54.066Z,9.20
2022-12-19T07:49:22.818Z,8.80
2022-12-19T07:51:49.848Z,9.05
2022-12-19T07:54:16.171Z,8.18
2022-12-19T07:56:42.523Z,8.13
2022-12-19T07:59:09.181Z,8.05
2022-12-19T08:01:35.610Z,8.40
2022-12-19T08:04:02.019Z,7.82
2022-12-19T08:06:28.634Z,8.00
2022-12-19T08:08:55.004Z,7.65
2022-12-19T08:11:29.512Z,8.07
2022-12-19T08:13:56.885Z,7.53
2022-12-19T08:16:24.957Z,9.13
2022-12-19T08:18:51.496Z,9.70
2022-12-19T08:21:18.064Z,8.20
2022-12-19T08:23:45.929Z,8.20
2022-12-19T08:26:13.868Z,6.68
2022-12-19T08:28:40.300Z,7.00
2022-12-19T08:31:06.738Z,7.75
2022-12-19T08:33:33.150Z,6.97
2022-12-19T08:36:02.873Z,6.95
2022-12-19T08:38:29.196Z,6.85
2022-12-19T08:40:55.521Z,7.72
2022-12-19T08:43:21.869Z,6.82
2022-12-19T08:45:51.267Z,7.13
2022-12-19T08:48:17.872Z,7.22
2022-12-19T08:50:50.831Z,6.82
2022-12-19T08:53:21.466Z,7.80
2022-12-19T08:55:56.607Z,8.18
2022-12-19T08:58:23.383Z,7.68
2022-12-19T09:00:55.488Z,8.30
2022-12-19T09:03:24.260Z,7.85
2022-12-19T09:06:07.881Z,7.47
2022-12-19T09:08:36.472Z,8.13
2022-12-19T09:11:15.280Z,7.45
2022-12-19T09:13:42.709Z,7.15
2022-12-19T09:16:13.539Z,7.38
2022-12-19T09:18:45.168Z,7.50
2022-12-19T09:21:14.896Z,9.73
2022-12-19T09:23:41.874Z,7.97
2022-12-19T09:26:10.762Z,8.98
2022-12-19T09:28:38.054Z,8.50
2022-12-19T09:31:05.675Z,8.35
2022-12-19T09:33:38.003Z,9.00
2022-12-19T09:36:09.917Z,7.75
2022-12-19T09:38:38.128Z,8.32
2022-12-19T09:41:13.916Z,7.90
2022-12-19T09:43:42.199Z,8.25
2022-12-19T09:46:08.554Z,8.50
2022-12-19T09:48:34.909Z,8.18
2022-12-19T09:51:10.512Z,8.45
2022-12-19T09:53:58.231Z,8.13
2022-12-19T09:56:28.251Z,8.40
2022-12-19T09:59:00.380Z,8.70
2022-12-19T10:01:30.711Z,7.55
2022-12-19T10:04:03.137Z,8.35
2022-12-19T10:07:12.593Z,8.02
2022-12-19T10:10:09.790Z,7.85
2022-12-19T10:12:45.360Z,9.38
2022-12-19T10:15:00.058Z,7.50
2022-12-19T10:17:29.216Z,8.55
2022-12-19T10:20:03.751Z,8.68
2022-12-19T10:22:52.676Z,7.95
2022-12-19T10:25:28.860Z,7.95
2022-12-19T10:28:00.981Z,8.45
2022-12-19T10:30:31.744Z,7.22
2022-12-19T10:33:01.689Z,6.40
2022-12-19T10:35:32.471Z,5.78
2022-12-19T10:38:05.337Z,5.22
2022-12-19T10:40:39.276Z,5.22
2022-12-19T10:43:28.635Z,5.30
2022-12-19T10:46:01.258Z,5.03
2022-12-19T10:48:30.979Z,4.95
2022-12-19T10:50:57.939Z,5.45
2022-12-19T10:53:28.802Z,5.20
2022-12-19T10:55:56.917Z,5.53
2022-12-19T10:58:27.619Z,6.15
2022-12-19T11:00:53.952Z,5.82
2022-12-19T11:03:20.455Z,6.20
2022-12-19T11:05:52.632Z,5.72
2022-12-19T11:08:25.899Z,5.88
2022-12-19T11:12:37.141Z,5.78
2022-12-19T11:19:13.509Z,6.20
2022-12-19T11:21:16.726Z,5.90
2022-12-19T11:29:27.583Z,5.80
2022-12-19T11:29:54.792Z,6.65
2022-12-19T11:30:36.954Z,6.43
2022-12-19T11:30:46.429Z,7.93
2022-12-19T11:33:27.439Z,8.85
2022-12-19T11:35:55.228Z,9.48
2022-12-19T11:38:42.335Z,9.23
2022-12-19T11:41:14.367Z,9.65
2022-12-19T11:44:03.359Z,9.00
2022-12-19T11:46:34.757Z,9.50
2022-12-19T11:49:11.135Z,9.23
2022-12-19T11:51:37.549Z,10.23
2022-12-19T11:54:19.630Z,9.38
2022-12-19T11:56:46.143Z,9.68
2022-12-19T11:59:16.807Z,9.20
2022-12-19T12:01:58.316Z,10.73
2022-12-19T12:04:27.730Z,9.85
2022-12-19T12:06:55.864Z,10.18
2022-12-19T12:12:42.221Z,10.30
2022-12-19T12:17:53.177Z,10.73
2022-12-19T12:25:30.381Z,10.43
2022-12-19T12:30:26.028Z,10.38
2022-12-19T12:31:21.961Z,10.68
2022-12-19T12:31:40.356Z,10.73
2022-12-19T12:31:46.187Z,10.52
2022-12-19T12:31:53.908Z,10.73
2022-12-19T12:35:38.056Z,11.50
2022-12-19T12:37:52.533Z,11.32
2022-12-19T12:38:43.077Z,11.48
2022-12-19T12:41:51.862Z,11.32
2022-12-19T12:44:18.261Z,11.25
2022-12-19T12:47:01.347Z,11.23
2022-12-19T12:49:39.110Z,11.88
2022-12-19T12:52:22.759Z,11.85
2022-12-19T12:54:50.232Z,11.55
2022-12-19T12:57:33.818Z,11.20
2022-12-19T13:00:31.900Z,12.55
2022-12-19T13:03:07.516Z,12.13
2022-12-19T13:05:46.469Z,11.43
2022-12-19T13:08:31.144Z,12.30
2022-12-19T13:11:11.502Z,11.90
2022-12-19T13:14:07.474Z,11.95
2022-12-19T13:16:46.000Z,12.20
2022-12-19T13:19:20.949Z,13.10
2022-12-19T13:22:07.566Z,13.85
2022-12-19T13:24:45.297Z,12.85
2022-12-19T13:27:20.965Z,14.50
2022-12-19T13:29:51.074Z,13.98
2022-12-19T13:32:17.466Z,14.88
2022-12-19T13:34:58.598Z,14.38
2022-12-19T13:39:58.316Z,15.05
2022-12-19T13:40:43.325Z,13.82
2022-12-19T13:43:43.688Z,14.82
2022-12-19T13:46:28.891Z,15.20
2022-12-19T13:48:57.557Z,10.50
2022-12-19T13:51:23.960Z,14.80
2022-12-19T13:53:59.022Z,15.10
2022-12-19T13:56:30.142Z,14.50
2022-12-19T13:58:58.224Z,15.25
2022-12-19T14:01:27.675Z,16.10
2022-12-19T14:03:55.818Z,15.40
2022-12-19T14:06:25.286Z,16.58
2022-12-19T14:09:58.682Z,15.88
2022-12-19T14:13:45.565Z,16.40
2022-12-19T14:14:48.914Z,16.45
2022-12-19T14:17:29.311Z,15.18
2022-12-19T14:20:37.204Z,16.38
2022-12-19T14:22:42.385Z,15.80
2022-12-19T14:28:14.470Z,16.10
2022-12-19T14:28:17.253Z,15.55
2022-12-19T14:30:47.870Z,16.08
2022-12-19T14:33:44.324Z,15.82
2022-12-19T14:36:07.601Z,15.35
2022-12-19T14:41:46.515Z,15.02
2022-12-19T14:52:34.426Z,14.82
2022-12-19T14:52:51.264Z,15.20
2022-12-19T14:54:14.695Z,15.32
2022-12-19T14:54:24.630Z,16.35
2022-12-19T14:56:15.944Z,16.15
2022-12-19T14:58:56.107Z,15.52
2022-12-19T15:01:25.092Z,15.93
2022-12-19T15:04:47.351Z,16.38
2022-12-19T15:07:09.185Z,17.30
2022-12-19T15:11:06.969Z,16.50
2022-12-19T15:14:49.362Z,17.20
2022-12-19T15:15:52.360Z,15.98
2022-12-19T15:18:27.217Z,17.02
2022-12-19T15:20:55.749Z,16.80
2022-12-19T15:23:23.006Z,16.15
2022-12-19T15:26:07.121Z,17.17
2022-12-19T15:28:36.694Z,16.05
2022-12-19T15:31:05.476Z,17.42
2022-12-19T15:33:31.885Z,17.77
2022-12-19T15:35:58.399Z,18.00
2022-12-19T15:38:24.882Z,18.23
2022-12-19T15:40:51.220Z,17.15
2022-12-19T15:43:53.587Z,18.05
2022-12-19T15:46:05.746Z,17.02
2022-12-19T15:48:33.625Z,16.88
2022-12-19T15:51:00.461Z,16.25
2022-12-19T15:53:40.385Z,15.38
2022-12-19T15:56:16.698Z,17.67
2022-12-19T16:01:09.313Z,16.65
2022-12-19T16:03:35.996Z,17.77
2022-12-19T16:06:02.576Z,17.83
2022-12-19T16:08:29.119Z,18.80
2022-12-19T16:11:01.502Z,17.73
2022-12-19T16:13:34.696Z,18.23
2022-12-19T16:16:01.417Z,17.75
2022-12-19T16:18:27.756Z,18.50
2022-12-19T16:20:54.127Z,18.90
2022-12-19T16:23:22.368Z,19.58
2022-12-19T16:25:52.192Z,19.23
2022-12-19T16:28:25.689Z,18.83
2022-12-19T16:30:52.254Z,18.88
2022-12-19T16:33:21.586Z,18.52
2022-12-19T16:36:04.313Z,19.30
2022-12-19T16:38:31.946Z,17.73
2022-12-19T16:40:58.561Z,18.30
2022-12-19T16:43:25.463Z,17.70
2022-12-19T16:45:51.780Z,18.90
2022-12-19T16:48:25.186Z,20.88
2022-12-19T16:50:51.579Z,18.83
2022-12-19T16:53:17.987Z,19.10
2022-12-19T16:55:45.654Z,17.67
2022-12-19T16:58:16.315Z,17.73
2022-12-19T17:00:42.716Z,17.70
2022-12-19T17:03:26.538Z,18.23
2022-12-19T17:05:53.267Z,17.60
2022-12-19T17:08:20.554Z,18.40
2022-12-19T17:10:47.493Z,17.55
2022-12-19T17:13:21.100Z,18.52
2022-12-19T17:15:54.306Z,18.30
2022-12-19T17:20:50.579Z,16.38
2022-12-19T17:23:18.931Z,17.48
2022-12-19T17:25:45.670Z,18.20
2022-12-19T17:28:12.677Z,18.23
2022-12-19T17:30:39.952Z,17.80
2022-12-19T17:33:07.210Z,18.33
2022-12-19T17:35:36.939Z,18.17
2022-12-19T17:38:03.640Z,17.40
2022-12-19T17:40:30.991Z,18.13
2022-12-19T17:42:58.211Z,17.17
2022-12-19T17:45:28.861Z,17.40
2022-12-19T17:48:02.078Z,17.98
2022-12-19T17:50:30.706Z,18.48
2022-12-19T17:52:57.382Z,16.60
2022-12-19T17:55:24.803Z,17.30
2022-12-19T17:57:51.536Z,18.13
2022-12-19T18:00:19.152Z,16.48
2022-12-19T18:02:46.740Z,16.63
2022-12-19T18:05:19.660Z,17.38
2022-12-19T18:07:46.292Z,16.52
2022-12-19T18:10:16.392Z,17.10
2022-12-19T18:12:42.773Z,17.88
2022-12-19T18:15:09.956Z,17.67
2022-12-19T18:17:37.661Z,17.20
2022-12-19T18:20:13.863Z,18.25
2022-12-19T18:22:40.230Z,17.02
2022-12-19T18:25:14.033Z,16.50
2022-12-19T18:27:40.362Z,16.73
2022-12-19T18:30:07.195Z,16.67
2022-12-19T18:32:33.514Z,17.92
2022-12-19T18:34:59.935Z,18.23
2022-12-19T18:37:26.286Z,17.95
2022-12-19T18:39:55.501Z,16.58
2022-12-19T18:42:21.984Z,17.17
2022-12-19T18:44:48.405Z,17.15
2022-12-19T18:47:32.817Z,17.42
2022-12-19T18:49:59.118Z,17.02
2022-12-19T18:52:25.868Z,16.40
2022-12-19T18:54:52.287Z,17.15
2022-12-19T18:57:18.618Z,17.83
2022-12-19T18:59:44.989Z,18.20
2022-12-19T19:02:37.754Z,16.30
2022-12-19T19:05:04.393Z,16.67
2022-12-19T19:07:30.703Z,17.33
2022-12-19T19:09:57.027Z,16.17
2022-12-19T19:12:23.368Z,16.02
2022-12-19T19:14:50.437Z,16.38
2022-12-19T19:17:22.280Z,16.58
2022-12-19T19:19:48.847Z,15.88
2022-12-19T19:22:15.189Z,16.17
2022-12-19T19:24:41.659Z,16.90
2022-12-19T19:27:08.089Z,17.90
2022-12-19T19:29:34.481Z,16.25
2022-12-19T19:32:00.833Z,16.73
2022-12-19T19:34:29.375Z,17.45
2022-12-19T19:36:57.020Z,23.35
2022-12-19T19:39:23.732Z,16.48
2022-12-19T19:41:50.151Z,17.73
2022-12-19T19:44:16.510Z,16.52
2022-12-19T19:46:43.016Z,16.67
2022-12-19T19:49:09.484Z,17.15
2022-12-19T19:51:35.860Z,16.52
2022-12-19T19:54:02.296Z,17.63
2022-12-19T19:56:28.902Z,17.73
2022-12-19T19:58:57.576Z,16.85
2022-12-19T20:01:24.119Z,17.27
2022-12-19T20:03:50.668Z,16.85
2022-12-19T20:06:17.833Z,16.67
2022-12-19T20:08:44.806Z,15.93
2022-12-19T20:11:11.151Z,15.02
2022-12-19T20:13:37.963Z,15.00
2022-12-19T20:16:04.431Z,14.60
2022-12-19T20:18:30.865Z,15.02
2022-12-19T20:20:57.489Z,15.38
2022-12-19T20:23:24.005Z,15.20
2022-12-19T20:25:50.353Z,14.50
2022-12-19T20:28:17.849Z,13.75
2022-12-19T20:30:45.256Z,14.77
2022-12-19T20:33:11.798Z,14.90
2022-12-19T20:35:38.162Z,13.80
2022-12-19T20:38:04.516Z,13.52
2022-12-19T20:40:30.878Z,13.52
2022-12-19T20:42:57.175Z,12.57
2022-12-19T20:45:23.535Z,12.57
2022-12-19T20:47:52.906Z,12.73
2022-12-19T20:50:19.231Z,13.07
2022-12-19T20:52:45.930Z,12.32
2022-12-19T20:55:12.282Z,12.13
2022-12-19T20:57:38.706Z,11.43
2022-12-19T21:00:06.267Z,10.88
2022-12-19T21:02:52.645Z,11.00
2022-12-19T21:05:20.472Z,10.23
2022-12-19T21:07:46.904Z,10.63
2022-12-19T21:10:13.421Z,9.85
2022-12-19T21:12:43.838Z,9.88
2022-12-19T21:15:13.986Z,10.82
2022-12-19T21:17:40.284Z,11.57
2022-12-19T21:20:06.971Z,9.25
2022-12-19T21:22:33.495Z,9.70
2022-12-19T21:24:59.855Z,10.48
2022-12-19T21:27:26.271Z,10.13
2022-12-19T21:29:52.766Z,10.07
2022-12-19T21:32:19.438Z,10.95
2022-12-19T21:34:45.796Z,9.00
2022-12-19T21:37:12.194Z,11.65
2022-12-19T21:39:38.575Z,36.33
2022-12-19T21:42:06.013Z,13.38
2022-12-19T21:44:32.347Z,9.27
2022-12-19T21:46:58.782Z,9.70
2022-12-19T21:49:25.216Z,9.30
2022-12-19T21:51:51.608Z,9.82
2022-12-19T21:54:18.176Z,8.80
2022-12-19T21:56:44.565Z,8.93
2022-12-19T21:59:12.311Z,8.63
2022-12-19T22:01:38.959Z,8.55
2022-12-19T22:04:07.066Z,8.63
2022-12-19T22:06:34.502Z,8.30
2022-12-19T22:09:01.520Z,9.52
2022-12-19T22:11:28.641Z,9.38
2022-12-19T22:13:55.655Z,9.75
2022-12-19T22:16:22.065Z,9.75
2022-12-19T22:18:50.006Z,10.05
2022-12-19T22:21:16.438Z,11.57
2022-12-19T22:23:45.982Z,13.35
2022-12-19T22:26:13.653Z,13.05
2022-12-19T22:28:40.855Z,11.73
2022-12-19T22:31:17.886Z,12.13
2022-12-19T22:33:44.694Z,11.68
2022-12-19T22:36:15.894Z,11.55
2022-12-19T22:38:46.820Z,12.52
2022-12-19T22:41:13.822Z,13.05
2022-12-19T22:43:40.236Z,11.90
2022-12-19T22:46:10.571Z,12.20
2022-12-19T22:48:37.629Z,12.15
2022-12-19T22:51:04.030Z,12.65
2022-12-19T22:53:30.419Z,11.82
2022-12-19T22:55:56.729Z,11.70
2022-12-19T22:58:23.082Z,11.63
2022-12-19T23:00:49.622Z,12.32
2022-12-19T23:03:16.326Z,12.38
2022-12-19T23:05:46.956Z,13.70
2022-12-19T23:08:16.519Z,11.93
2022-12-19T23:10:42.859Z,13.52
2022-12-19T23:13:09.277Z,11.93
2022-12-19T23:15:35.779Z,15.25
2022-12-19T23:18:02.145Z,14.18
2022-12-19T23:20:28.487Z,13.95
2022-12-19T23:22:54.861Z,12.13
2022-12-19T23:25:21.304Z,12.63
2022-12-19T23:27:47.834Z,12.82
2022-12-19T23:30:14.200Z,11.75
2022-12-19T23:32:45.476Z,12.52
2022-12-19T23:35:15.250Z,12.85
2022-12-19T23:37:43.523Z,12.15
2022-12-19T23:40:10.250Z,13.10
2022-12-19T23:42:36.659Z,13.00
2022-12-19T23:45:03.357Z,13.43
2022-12-19T23:47:29.751Z,13.13
2022-12-19T23:49:56.110Z,14.27
2022-12-19T23:52:22.480Z,12.02
2022-12-19T23:54:48.817Z,12.40
2022-12-19T23:57:15.236Z,11.70
2022-12-19T23:59:41.575Z,11.10
